Terminal Aerodrome Forecast
Issued by NWS

Home | Current Version | Previous Version | Text Only | Print | Product List | Glossary Off
Versions: 1 2 3 4 5 6 7 8 9 10 11 12 13 14

000
FTUS43 KOAX 262320
TAFCDR
TAF
KCDR 262320Z 2700/2724 17007KT P6SM SCT025 BKN040
     FM270200 18010KT P6SM BKN070
     FM271200 24010KT P6SM SCT250=

USA.gov is the U.S. government's official web portal to all federal, state and local government web resources and services.